createdAt,value
2022-10-10T00:04:53.214Z,85.68
2022-10-10T00:10:02.410Z,85.45
2022-10-10T00:15:20.414Z,86.29
2022-10-10T00:20:22.377Z,86.03
2022-10-10T00:25:30.162Z,85.73
2022-10-10T00:30:34.443Z,86.02
2022-10-10T00:35:39.314Z,86.15
2022-10-10T00:40:46.672Z,85.93
2022-10-10T00:45:52.073Z,87.19
2022-10-10T00:51:22.474Z,86.47
2022-10-10T00:56:32.255Z,87.61
2022-10-10T01:01:34.630Z,87.35
2022-10-10T01:07:00.421Z,86.73
2022-10-10T01:12:32.263Z,86.82
2022-10-10T01:17:39.150Z,87.07
2022-10-10T01:22:59.442Z,85.83
2022-10-10T01:28:39.412Z,86.93
2022-10-10T01:33:44.104Z,86.27
2022-10-10T01:38:52.713Z,86.03
2022-10-10T01:43:59.867Z,87.39
2022-10-10T01:49:01.922Z,87.21
2022-10-10T01:54:31.921Z,87.36
2022-10-10T01:59:45.326Z,87.85
2022-10-10T02:04:59.061Z,88.20
2022-10-10T02:10:08.158Z,87.07
2022-10-10T02:15:17.646Z,87.26
2022-10-10T02:20:25.228Z,87.35
2022-10-10T02:25:30.206Z,87.67
2022-10-10T02:30:39.818Z,88.47
2022-10-10T02:35:45.803Z,88.25
2022-10-10T02:40:48.419Z,88.96
2022-10-10T02:45:54.253Z,88.08
2022-10-10T02:51:01.868Z,89.18
2022-10-10T02:56:06.438Z,88.10
2022-10-10T03:01:10.609Z,88.58
2022-10-10T03:06:17.628Z,89.50
2022-10-10T03:11:20.517Z,89.67
2022-10-10T03:16:24.570Z,89.09
2022-10-10T03:21:30.994Z,88.50
2022-10-10T03:26:32.844Z,88.84
2022-10-10T03:31:36.720Z,87.81
2022-10-10T03:36:43.180Z,88.29
2022-10-10T03:41:50.342Z,88.97
2022-10-10T03:46:56.647Z,89.57
2022-10-10T03:52:03.984Z,88.94
2022-10-10T03:57:07.918Z,89.27
2022-10-10T04:02:09.619Z,89.12
2022-10-10T04:07:13.873Z,90.08
2022-10-10T04:12:18.981Z,89.22
2022-10-10T04:17:23.358Z,89.80
2022-10-10T04:22:25.935Z,89.57
2022-10-10T04:27:27.688Z,90.20
2022-10-10T04:32:29.391Z,90.52
2022-10-10T04:37:34.296Z,90.60
2022-10-10T04:42:40.645Z,91.05
2022-10-10T04:47:44.945Z,90.79
2022-10-10T04:52:51.230Z,91.21
2022-10-10T04:57:57.613Z,91.71
2022-10-10T05:03:03.832Z,91.67
2022-10-10T05:08:06.096Z,90.94
2022-10-10T05:13:16.059Z,91.34
2022-10-10T05:18:20.454Z,91.41
2022-10-10T05:23:26.769Z,91.94
2022-10-10T05:28:29.685Z,92.89
2022-10-10T05:33:32.137Z,92.55
2022-10-10T05:38:39.116Z,92.64
2022-10-10T05:43:43.071Z,93.95
2022-10-10T05:48:44.802Z,93.49
2022-10-10T05:53:47.147Z,92.98
2022-10-10T05:58:53.942Z,93.38
2022-10-10T06:04:00.555Z,94.29
2022-10-10T06:09:03.741Z,94.34
2022-10-10T06:14:13.668Z,93.18
2022-10-10T06:19:18.275Z,93.14
2022-10-10T06:24:20.155Z,93.48
2022-10-10T06:29:22.904Z,93.03
2022-10-10T06:34:33.234Z,92.99
2022-10-10T06:39:37.825Z,92.22
2022-10-10T06:44:39.583Z,92.02
2022-10-10T06:49:43.669Z,91.78
2022-10-10T06:54:50.168Z,91.54
2022-10-10T06:59:54.181Z,92.16
2022-10-10T07:04:55.921Z,91.59
2022-10-10T07:09:57.581Z,91.35
2022-10-10T07:15:04.198Z,91.16
2022-10-10T07:20:08.664Z,91.40
2022-10-10T07:25:10.384Z,91.18
2022-10-10T07:30:14.865Z,91.03
2022-10-10T07:35:17.968Z,90.30
2022-10-10T07:40:19.682Z,89.75
2022-10-10T07:45:21.424Z,89.15
2022-10-10T07:50:26.091Z,89.56
2022-10-10T07:55:32.519Z,89.61
2022-10-10T08:00:37.509Z,88.61
2022-10-10T08:05:42.904Z,87.87
2022-10-10T08:10:44.816Z,87.45
2022-10-10T08:15:53.740Z,87.01
2022-10-10T08:21:05.230Z,86.00
2022-10-10T08:26:09.893Z,86.81
2022-10-10T08:31:15.070Z,86.41
2022-10-10T08:36:20.454Z,85.16
2022-10-10T08:41:39.597Z,85.33
2022-10-10T08:46:46.770Z,84.36
2022-10-10T08:51:57.386Z,83.93
2022-10-10T08:57:01.233Z,82.60
2022-10-10T09:02:53.218Z,81.88
2022-10-10T09:08:02.868Z,81.52
2022-10-10T09:13:26.310Z,80.94
2022-10-10T09:18:40.560Z,81.26
2022-10-10T09:23:57.474Z,80.53
2022-10-10T09:29:39.103Z,80.76
2022-10-10T09:34:49.038Z,79.56
2022-10-10T09:39:52.863Z,79.49
2022-10-10T09:44:54.597Z,79.07
2022-10-10T09:55:26.990Z,77.87
2022-10-10T10:00:40.574Z,77.56
2022-10-10T10:06:01.683Z,76.80
2022-10-10T10:11:06.352Z,76.78
2022-10-10T10:16:11.929Z,75.66
2022-10-10T10:21:23.655Z,76.32
2022-10-10T10:26:46.686Z,76.20
2022-10-10T10:31:53.315Z,75.38
2022-10-10T10:37:14.915Z,75.23
2022-10-10T10:42:54.191Z,74.41
2022-10-10T10:48:10.454Z,73.66
2022-10-10T10:53:35.991Z,74.43
2022-10-10T11:05:19.873Z,72.65
2022-10-10T11:10:36.577Z,70.43
2022-10-10T11:16:06.692Z,71.74
2022-10-10T11:21:18.375Z,70.59
2022-10-10T11:26:47.316Z,70.06
2022-10-10T11:31:49.989Z,69.04
2022-10-10T11:36:55.062Z,70.03
2022-10-10T11:42:19.106Z,69.38
2022-10-10T11:47:40.240Z,68.52
2022-10-10T11:52:59.064Z,68.17
2022-10-10T11:58:06.494Z,67.71
2022-10-10T12:03:15.774Z,66.06
2022-10-10T12:08:33.566Z,66.32
2022-10-10T12:13:35.870Z,67.11
2022-10-10T12:18:49.631Z,68.77
2022-10-10T12:24:11.372Z,67.76
2022-10-10T12:29:51.308Z,67.96
2022-10-10T12:34:53.203Z,70.59
2022-10-10T12:40:21.478Z,70.42
2022-10-10T12:45:31.661Z,70.39
2022-10-10T12:50:41.782Z,71.30
2022-10-10T12:55:50.198Z,72.24
2022-10-10T13:00:52.766Z,72.24
2022-10-10T13:05:56.368Z,73.31
2022-10-10T13:11:08.382Z,74.97
2022-10-10T13:16:15.452Z,73.43
2022-10-10T13:21:29.850Z,74.28
2022-10-10T13:26:33.050Z,75.13
2022-10-10T13:31:34.840Z,76.43
2022-10-10T13:36:38.741Z,76.87
2022-10-10T13:41:48.582Z,79.64
2022-10-10T13:46:53.011Z,80.51
2022-10-10T13:52:22.004Z,81.52
2022-10-10T13:57:27.726Z,83.00
2022-10-10T14:02:36.006Z,84.17
2022-10-10T14:07:48.191Z,85.44
2022-10-10T14:12:52.015Z,85.18
2022-10-10T14:17:55.350Z,86.81
2022-10-10T14:23:01.701Z,87.59
2022-10-10T14:28:06.150Z,88.00
2022-10-10T14:33:15.810Z,89.34
2022-10-10T14:38:20.816Z,90.38
2022-10-10T14:43:25.675Z,90.82
2022-10-10T14:48:33.788Z,92.50
2022-10-10T14:53:35.590Z,93.74
2022-10-10T14:58:42.193Z,94.47
2022-10-10T15:03:43.877Z,96.55
2022-10-10T15:08:45.563Z,98.58
2022-10-10T15:13:47.358Z,100.00
2022-10-10T15:18:54.417Z,100.00
2022-10-10T15:23:59.829Z,100.00
2022-10-10T15:29:01.657Z,100.00
2022-10-10T15:34:06.205Z,100.00
2022-10-10T15:39:14.142Z,100.00
2022-10-10T15:44:21.159Z,100.00
2022-10-10T15:49:25.260Z,100.00
2022-10-10T15:54:27.002Z,100.00
2022-10-10T15:59:37.934Z,100.00
2022-10-10T16:04:42.649Z,100.00
2022-10-10T16:09:49.661Z,100.00
2022-10-10T16:14:54.461Z,100.00
2022-10-10T16:19:56.533Z,100.00
2022-10-10T16:25:20.833Z,100.00
2022-10-10T16:30:20.978Z,100.00
2022-10-10T16:35:25.351Z,100.00
2022-10-10T16:40:29.316Z,100.00
2022-10-10T16:45:31.098Z,100.00
2022-10-10T16:50:35.130Z,100.00
2022-10-10T16:55:42.466Z,100.00
2022-10-10T17:00:47.203Z,100.00
2022-10-10T17:05:52.451Z,100.00
2022-10-10T17:10:58.359Z,100.00
2022-10-10T17:16:44.704Z,100.00
2022-10-10T17:21:29.120Z,100.00
2022-10-10T17:26:37.401Z,100.00
2022-10-10T17:31:41.943Z,100.00
2022-10-10T17:36:50.044Z,100.00
2022-10-10T17:41:54.166Z,100.00
2022-10-10T17:46:56.714Z,100.00
2022-10-10T17:51:58.435Z,100.00
2022-10-10T17:57:01.201Z,100.00
2022-10-10T18:02:05.048Z,100.00
2022-10-10T18:07:13.318Z,100.00
2022-10-10T18:12:16.108Z,100.00
2022-10-10T18:17:17.827Z,100.00
2022-10-10T18:22:19.590Z,100.00
2022-10-10T18:27:21.752Z,100.00
2022-10-10T18:32:25.542Z,100.00
2022-10-10T18:37:33.864Z,100.00
2022-10-10T18:42:38.480Z,100.00
2022-10-10T18:47:42.397Z,100.00
2022-10-10T18:52:47.721Z,100.00
2022-10-10T18:57:49.457Z,100.00
2022-10-10T19:02:51.550Z,100.00
2022-10-10T19:07:53.253Z,100.00
2022-10-10T19:12:54.971Z,100.00
2022-10-10T19:17:56.902Z,100.00
2022-10-10T19:23:02.450Z,100.00
2022-10-10T19:28:08.978Z,100.00
2022-10-10T19:33:12.739Z,100.00
2022-10-10T19:38:22.024Z,100.00
2022-10-10T19:43:26.265Z,100.00
2022-10-10T19:48:33.396Z,100.00
2022-10-10T19:53:39.892Z,100.00
2022-10-10T19:58:43.158Z,100.00
2022-10-10T20:03:48.816Z,100.00
2022-10-10T20:08:53.224Z,100.00
2022-10-10T20:13:55.891Z,100.00
2022-10-10T20:18:58.882Z,100.00
2022-10-10T20:24:03.599Z,100.00
2022-10-10T20:29:06.068Z,100.00
2022-10-10T20:34:14.937Z,100.00
2022-10-10T20:39:25.144Z,100.00
2022-10-10T20:44:26.935Z,100.00
2022-10-10T20:49:28.634Z,100.00
2022-10-10T20:54:30.329Z,100.00
2022-10-10T20:59:34.251Z,100.00
2022-10-10T21:04:37.136Z,100.00
2022-10-10T21:09:41.039Z,100.00
2022-10-10T21:14:50.398Z,100.00
2022-10-10T21:19:52.100Z,100.00
2022-10-10T21:24:56.051Z,100.00
2022-10-10T21:29:57.794Z,100.00
2022-10-10T21:35:01.867Z,100.00
2022-10-10T21:40:07.269Z,100.00
2022-10-10T21:45:09.546Z,100.00
2022-10-10T21:50:16.067Z,100.00
2022-10-10T21:55:17.838Z,100.00
2022-10-10T22:00:20.388Z,100.00
2022-10-10T22:05:22.171Z,100.00
2022-10-10T22:10:23.856Z,100.00
2022-10-10T22:15:25.549Z,100.00
2022-10-10T22:20:27.326Z,100.00
2022-10-10T22:25:31.546Z,100.00
2022-10-10T22:30:35.947Z,100.00
2022-10-10T22:35:41.099Z,100.00
2022-10-10T22:40:42.794Z,100.00
2022-10-10T22:45:44.775Z,100.00
2022-10-10T22:50:51.767Z,100.00
2022-10-10T22:55:54.503Z,100.00
2022-10-10T23:00:58.483Z,100.00
2022-10-10T23:06:05.527Z,100.00
2022-10-10T23:11:07.621Z,100.00
2022-10-10T23:16:12.767Z,100.00
2022-10-10T23:21:19.217Z,100.00
2022-10-10T23:26:20.972Z,100.00
2022-10-10T23:31:28.325Z,100.00
2022-10-10T23:36:34.532Z,100.00
2022-10-10T23:41:36.900Z,100.00
2022-10-10T23:46:41.292Z,100.00
2022-10-10T23:51:45.410Z,100.00
2022-10-10T23:56:49.923Z,100.00
